sensor_id;sensor_type;location;lat;lon;timestamp;pressure;altitude;pressure_sealevel;temperature;humidity
70127;BME280;57491;42.694;23.314;2023-03-21T00:01:23;94950.16;;;14.38;43.35
70127;BME280;57491;42.694;23.314;2023-03-21T00:03:50;94955.56;;;14.23;44.91
70127;BME280;57491;42.694;23.314;2023-03-21T00:06:18;94945.16;;;14.16;44.08
70127;BME280;57491;42.694;23.314;2023-03-21T00:08:45;94950.19;;;14.05;44.88
70127;BME280;57491;42.694;23.314;2023-03-21T00:11:13;94950.81;;;13.80;44.91
70127;BME280;57491;42.694;23.314;2023-03-21T00:13:40;94960.44;;;13.73;45.58
70127;BME280;57491;42.694;23.314;2023-03-21T00:16:11;94943.75;;;13.61;45.63
70127;BME280;57491;42.694;23.314;2023-03-21T00:18:41;94948.00;;;13.62;45.46
70127;BME280;57491;42.694;23.314;2023-03-21T00:21:12;94947.78;;;13.57;46.07
70127;BME280;57491;42.694;23.314;2023-03-21T00:23:41;94946.19;;;13.50;45.42
70127;BME280;57491;42.694;23.314;2023-03-21T00:26:09;94952.00;;;13.58;47.35
70127;BME280;57491;42.694;23.314;2023-03-21T00:28:36;94944.34;;;13.57;45.38
70127;BME280;57491;42.694;23.314;2023-03-21T00:31:04;94950.00;;;13.54;46.03
70127;BME280;57491;42.694;23.314;2023-03-21T00:33:33;94946.75;;;13.52;45.90
70127;BME280;57491;42.694;23.314;2023-03-21T00:36:01;94955.41;;;13.46;46.27
70127;BME280;57491;42.694;23.314;2023-03-21T00:38:28;94950.38;;;13.44;46.15
70127;BME280;57491;42.694;23.314;2023-03-21T00:40:55;94951.78;;;13.47;45.89
70127;BME280;57491;42.694;23.314;2023-03-21T00:43:22;94957.00;;;13.47;45.57
70127;BME280;57491;42.694;23.314;2023-03-21T00:45:55;94960.03;;;13.44;45.62
70127;BME280;57491;42.694;23.314;2023-03-21T00:48:23;94947.97;;;13.43;46.36
70127;BME280;57491;42.694;23.314;2023-03-21T00:50:53;94942.16;;;13.40;45.83
70127;BME280;57491;42.694;23.314;2023-03-21T00:53:21;94942.16;;;13.40;46.08
70127;BME280;57491;42.694;23.314;2023-03-21T00:55:48;94945.16;;;13.44;46.33
70127;BME280;57491;42.694;23.314;2023-03-21T00:58:15;94943.34;;;13.45;46.09
70127;BME280;57491;42.694;23.314;2023-03-21T01:00:43;94948.56;;;13.51;48.09
70127;BME280;57491;42.694;23.314;2023-03-21T01:03:13;94944.16;;;13.58;47.38
70127;BME280;57491;42.694;23.314;2023-03-21T01:05:42;94944.38;;;13.63;48.37
70127;BME280;57491;42.694;23.314;2023-03-21T01:08:32;94936.16;;;13.60;46.72
70127;BME280;57491;42.694;23.314;2023-03-21T01:11:03;94933.31;;;13.61;46.59
70127;BME280;57491;42.694;23.314;2023-03-21T01:13:30;94933.09;;;13.56;45.78
70127;BME280;57491;42.694;23.314;2023-03-21T01:15:57;94935.94;;;13.61;48.15
70127;BME280;57491;42.694;23.314;2023-03-21T01:18:27;94930.31;;;13.64;47.43
70127;BME280;57491;42.694;23.314;2023-03-21T01:20:56;94930.13;;;13.59;45.64
70127;BME280;57491;42.694;23.314;2023-03-21T01:23:25;94938.13;;;13.51;45.59
70127;BME280;57491;42.694;23.314;2023-03-21T01:25:55;94931.91;;;13.46;46.16
70127;BME280;57491;42.694;23.314;2023-03-21T01:28:24;94932.72;;;13.46;47.35
70127;BME280;57491;42.694;23.314;2023-03-21T01:30:52;94934.13;;;13.49;47.84
70127;BME280;57491;42.694;23.314;2023-03-21T01:33:20;94941.13;;;13.48;46.08
70127;BME280;57491;42.694;23.314;2023-03-21T01:35:48;94939.94;;;13.44;46.45
70127;BME280;57491;42.694;23.314;2023-03-21T01:38:15;94931.28;;;13.30;45.71
70127;BME280;57491;42.694;23.314;2023-03-21T01:40:43;94925.84;;;13.19;46.46
70127;BME280;57491;42.694;23.314;2023-03-21T01:43:22;94931.84;;;13.19;46.90
70127;BME280;57491;42.694;23.314;2023-03-21T01:46:21;94929.06;;;13.14;46.57
70127;BME280;57491;42.694;23.314;2023-03-21T01:48:54;94925.00;;;13.05;47.17
70127;BME280;57491;42.694;23.314;2023-03-21T01:51:24;94936.25;;;13.06;47.21
70127;BME280;57491;42.694;23.314;2023-03-21T01:53:52;94921.53;;;12.91;46.51
70127;BME280;57491;42.694;23.314;2023-03-21T01:56:24;94930.81;;;13.01;47.46
70127;BME280;57491;42.694;23.314;2023-03-21T01:58:59;94915.72;;;12.96;47.03
70127;BME280;57491;42.694;23.314;2023-03-21T02:01:29;94929.38;;;12.98;47.55
70127;BME280;57491;42.694;23.314;2023-03-21T02:04:00;94924.19;;;13.05;49.02
70127;BME280;57491;42.694;23.314;2023-03-21T02:06:33;94924.19;;;13.05;47.68
70127;BME280;57491;42.694;23.314;2023-03-21T02:09:05;94924.81;;;13.13;48.61
70127;BME280;57491;42.694;23.314;2023-03-21T02:11:35;94923.63;;;13.16;48.35
70127;BME280;57491;42.694;23.314;2023-03-21T02:14:05;94919.78;;;13.12;48.49
70127;BME280;57491;42.694;23.314;2023-03-21T02:16:43;94912.97;;;13.11;47.47
70127;BME280;57491;42.694;23.314;2023-03-21T02:19:44;94914.34;;;13.07;49.53
70127;BME280;57491;42.694;23.314;2023-03-21T02:22:38;94915.34;;;13.06;49.12
70127;BME280;57491;42.694;23.314;2023-03-21T02:25:40;94914.53;;;12.98;47.59
70127;BME280;57491;42.694;23.314;2023-03-21T02:28:14;94923.78;;;13.01;49.16
70127;BME280;57491;42.694;23.314;2023-03-21T02:31:17;94915.28;;;12.92;48.86
70127;BME280;57491;42.694;23.314;2023-03-21T02:36:54;94921.31;;;12.86;48.42
70127;BME280;57491;42.694;23.314;2023-03-21T02:39:25;94915.09;;;12.87;48.98
70127;BME280;57491;42.694;23.314;2023-03-21T02:42:01;94919.50;;;12.80;48.02
70127;BME280;57491;42.694;23.314;2023-03-21T02:44:34;94911.66;;;12.74;48.44
70127;BME280;57491;42.694;23.314;2023-03-21T02:47:06;94914.88;;;12.82;49.51
70127;BME280;57491;42.694;23.314;2023-03-21T02:49:39;94912.88;;;12.78;49.22
70127;BME280;57491;42.694;23.314;2023-03-21T02:52:13;94914.03;;;12.75;49.68
70127;BME280;57491;42.694;23.314;2023-03-21T02:54:42;94908.47;;;12.78;48.86
70127;BME280;57491;42.694;23.314;2023-03-21T02:57:10;94917.47;;;12.76;48.85
70127;BME280;57491;42.694;23.314;2023-03-21T02:59:38;94915.44;;;12.71;48.97
70127;BME280;57491;42.694;23.314;2023-03-21T03:02:07;94910.44;;;12.70;49.37
70127;BME280;57491;42.694;23.314;2023-03-21T03:04:34;94911.03;;;12.65;50.09
70127;BME280;57491;42.694;23.314;2023-03-21T03:07:14;94907.56;;;12.58;49.29
70127;BME280;57491;42.694;23.314;2023-03-21T03:09:58;94910.38;;;12.57;49.88
70127;BME280;57491;42.694;23.314;2023-03-21T03:12:35;94904.38;;;12.56;49.92
70127;BME280;57491;42.694;23.314;2023-03-21T03:15:15;94907.34;;;12.53;49.36
70127;BME280;57491;42.694;23.314;2023-03-21T03:17:50;94905.16;;;12.57;48.77
70127;BME280;57491;42.694;23.314;2023-03-21T03:20:28;94917.19;;;12.51;49.52
70127;BME280;57491;42.694;23.314;2023-03-21T03:23:08;94912.78;;;12.51;49.17
70127;BME280;57491;42.694;23.314;2023-03-21T03:25:43;94920.16;;;12.41;49.94
70127;BME280;57491;42.694;23.314;2023-03-21T03:28:15;94910.13;;;12.45;50.00
70127;BME280;57491;42.694;23.314;2023-03-21T03:30:45;94914.72;;;12.43;50.27
70127;BME280;57491;42.694;23.314;2023-03-21T03:33:14;94909.31;;;12.38;50.20
70127;BME280;57491;42.694;23.314;2023-03-21T03:35:49;94914.88;;;12.35;49.85
70127;BME280;57491;42.694;23.314;2023-03-21T03:38:20;94907.88;;;12.35;49.35
70127;BME280;57491;42.694;23.314;2023-03-21T03:40:51;94916.69;;;12.34;50.55
70127;BME280;57491;42.694;23.314;2023-03-21T03:43:22;94921.50;;;12.31;49.23
70127;BME280;57491;42.694;23.314;2023-03-21T03:45:56;94915.88;;;12.34;51.73
70127;BME280;57491;42.694;23.314;2023-03-21T03:48:27;94922.06;;;12.26;51.33
70127;BME280;57491;42.694;23.314;2023-03-21T03:50:59;94909.00;;;12.20;51.19
70127;BME280;57491;42.694;23.314;2023-03-21T03:53:34;94915.63;;;12.22;50.26
70127;BME280;57491;42.694;23.314;2023-03-21T03:56:04;94915.63;;;12.16;49.66
70127;BME280;57491;42.694;23.314;2023-03-21T03:58:34;94914.00;;;12.15;50.00
70127;BME280;57491;42.694;23.314;2023-03-21T04:01:04;94922.81;;;12.14;50.38
70127;BME280;57491;42.694;23.314;2023-03-21T04:03:33;94919.38;;;12.06;50.60
70127;BME280;57491;42.694;23.314;2023-03-21T04:06:02;94913.69;;;11.96;51.23
70127;BME280;57491;42.694;23.314;2023-03-21T04:08:30;94925.34;;;12.00;51.13
70127;BME280;57491;42.694;23.314;2023-03-21T04:10:57;94914.44;;;11.90;51.38
70127;BME280;57491;42.694;23.314;2023-03-21T04:13:25;94917.84;;;11.91;51.59
70127;BME280;57491;42.694;23.314;2023-03-21T04:15:52;94922.88;;;11.92;51.58
70127;BME280;57491;42.694;23.314;2023-03-21T04:18:19;94919.22;;;11.87;51.55
70127;BME280;57491;42.694;23.314;2023-03-21T04:20:47;94915.19;;;11.84;50.84
70127;BME280;57491;42.694;23.314;2023-03-21T04:23:16;94916.22;;;11.83;52.51
70127;BME280;57491;42.694;23.314;2023-03-21T04:25:45;94914.59;;;11.82;51.26
70127;BME280;57491;42.694;23.314;2023-03-21T04:28:12;94901.16;;;11.79;51.11
70127;BME280;57491;42.694;23.314;2023-03-21T04:30:39;94905.41;;;11.86;52.61
70127;BME280;57491;42.694;23.314;2023-03-21T04:33:06;94904.75;;;11.84;51.66
70127;BME280;57491;42.694;23.314;2023-03-21T04:35:33;94902.22;;;11.91;51.93
70127;BME280;57491;42.694;23.314;2023-03-21T04:38:01;94913.69;;;11.96;52.97
70127;BME280;57491;42.694;23.314;2023-03-21T04:40:28;94914.28;;;11.98;53.16
70127;BME280;57491;42.694;23.314;2023-03-21T04:42:56;94913.28;;;11.99;52.15
70127;BME280;57491;42.694;23.314;2023-03-21T04:45:25;94901.06;;;12.00;52.78
70127;BME280;57491;42.694;23.314;2023-03-21T04:47:53;94916.75;;;12.06;51.92
70127;BME280;57491;42.694;23.314;2023-03-21T04:50:20;94912.94;;;12.09;52.20
70127;BME280;57491;42.694;23.314;2023-03-21T04:52:48;94915.38;;;12.11;50.75
70127;BME280;57491;42.694;23.314;2023-03-21T04:55:16;94918.16;;;12.09;50.70
70127;BME280;57491;42.694;23.314;2023-03-21T04:57:46;94922.97;;;12.12;50.24
70127;BME280;57491;42.694;23.314;2023-03-21T05:00:16;94921.00;;;12.14;50.18
70127;BME280;57491;42.694;23.314;2023-03-21T05:02:43;94928.44;;;12.17;50.72
70127;BME280;57491;42.694;23.314;2023-03-21T05:05:11;94926.03;;;12.16;49.60
70127;BME280;57491;42.694;23.314;2023-03-21T05:07:38;94928.66;;;12.16;49.26
70127;BME280;57491;42.694;23.314;2023-03-21T05:10:07;94933.03;;;12.15;49.09
70127;BME280;57491;42.694;23.314;2023-03-21T05:12:35;94927.63;;;12.17;49.53
70127;BME280;57491;42.694;23.314;2023-03-21T05:15:02;94933.47;;;12.19;49.38
70127;BME280;57491;42.694;23.314;2023-03-21T05:17:31;94922.22;;;12.18;49.73
70127;BME280;57491;42.694;23.314;2023-03-21T05:19:58;94921.25;;;12.26;49.08
70127;BME280;57491;42.694;23.314;2023-03-21T05:22:25;94914.81;;;12.22;49.75
70127;BME280;57491;42.694;23.314;2023-03-21T05:24:53;94929.78;;;12.41;50.09
70127;BME280;57491;42.694;23.314;2023-03-21T05:27:21;94932.22;;;12.49;48.89
70127;BME280;57491;42.694;23.314;2023-03-21T05:30:02;94924.78;;;12.52;48.70
70127;BME280;57491;42.694;23.314;2023-03-21T05:32:32;94927.44;;;12.59;48.69
70127;BME280;57491;42.694;23.314;2023-03-21T05:34:59;94918.06;;;12.71;47.84
70127;BME280;57491;42.694;23.314;2023-03-21T05:37:27;94931.31;;;12.76;48.15
70127;BME280;57491;42.694;23.314;2023-03-21T05:39:54;94935.34;;;12.85;48.57
70127;BME280;57491;42.694;23.314;2023-03-21T05:42:21;94921.91;;;12.88;49.03
70127;BME280;57491;42.694;23.314;2023-03-21T05:44:48;94932.97;;;12.97;47.99
70127;BME280;57491;42.694;23.314;2023-03-21T05:47:16;94934.22;;;13.01;46.84
70127;BME280;57491;42.694;23.314;2023-03-21T05:49:45;94917.75;;;13.07;46.46
70127;BME280;57491;42.694;23.314;2023-03-21T05:52:12;94922.41;;;13.12;46.91
70127;BME280;57491;42.694;23.314;2023-03-21T05:54:40;94912.59;;;13.20;47.25
70127;BME280;57491;42.694;23.314;2023-03-21T05:57:07;94915.81;;;13.29;47.25
70127;BME280;57491;42.694;23.314;2023-03-21T05:59:35;94905.34;;;13.29;46.38
70127;BME280;57491;42.694;23.314;2023-03-21T06:02:02;94909.00;;;13.41;46.75
70127;BME280;57491;42.694;23.314;2023-03-21T06:04:30;94909.00;;;13.54;46.66
70127;BME280;57491;42.694;23.314;2023-03-21T06:06:58;94915.03;;;13.68;46.14
70127;BME280;57491;42.694;23.314;2023-03-21T06:09:25;94907.19;;;13.81;46.28
70127;BME280;57491;42.694;23.314;2023-03-21T06:11:54;94907.19;;;13.94;46.58
70127;BME280;57491;42.694;23.314;2023-03-21T06:14:22;94899.13;;;14.09;46.00
70127;BME280;57491;42.694;23.314;2023-03-21T06:16:50;94903.69;;;14.26;45.21
70127;BME280;57491;42.694;23.314;2023-03-21T06:19:18;94898.06;;;14.36;45.10
70127;BME280;57491;42.694;23.314;2023-03-21T06:21:46;94901.84;;;14.47;44.74
70127;BME280;57491;42.694;23.314;2023-03-21T06:24:15;94911.25;;;14.61;43.99
70127;BME280;57491;42.694;23.314;2023-03-21T06:26:42;94907.38;;;14.70;43.91
70127;BME280;57491;42.694;23.314;2023-03-21T06:29:09;94900.28;;;14.77;43.78
70127;BME280;57491;42.694;23.314;2023-03-21T06:31:36;94896.84;;;14.90;43.41
70127;BME280;57491;42.694;23.314;2023-03-21T06:34:03;94891.72;;;15.01;43.08
70127;BME280;57491;42.694;23.314;2023-03-21T06:36:31;94889.03;;;15.14;41.79
70127;BME280;57491;42.694;23.314;2023-03-21T06:38:58;94901.22;;;15.27;41.68
70127;BME280;57491;42.694;23.314;2023-03-21T06:41:26;94906.00;;;15.37;41.76
70127;BME280;57491;42.694;23.314;2023-03-21T06:43:53;94903.81;;;15.34;41.24
70127;BME280;57491;42.694;23.314;2023-03-21T06:46:21;94910.66;;;15.35;41.07
70127;BME280;57491;42.694;23.314;2023-03-21T06:48:48;94912.00;;;15.44;40.70
70127;BME280;57491;42.694;23.314;2023-03-21T06:51:15;94911.72;;;15.58;40.84
70127;BME280;57491;42.694;23.314;2023-03-21T06:53:42;94915.50;;;15.62;40.35
70127;BME280;57491;42.694;23.314;2023-03-21T06:56:11;94908.78;;;15.73;40.38
70127;BME280;57491;42.694;23.314;2023-03-21T06:58:40;94907.41;;;15.71;40.25
70127;BME280;57491;42.694;23.314;2023-03-21T07:01:07;94922.66;;;15.80;40.86
70127;BME280;57491;42.694;23.314;2023-03-21T07:03:34;94920.81;;;15.81;40.97
70127;BME280;57491;42.694;23.314;2023-03-21T07:06:03;94924.75;;;15.90;40.59
70127;BME280;57491;42.694;23.314;2023-03-21T07:08:30;94918.31;;;15.92;40.22
70127;BME280;57491;42.694;23.314;2023-03-21T07:10:57;94920.00;;;16.05;39.78
70127;BME280;57491;42.694;23.314;2023-03-21T07:13:24;94914.31;;;16.08;40.29
70127;BME280;57491;42.694;23.314;2023-03-21T07:15:53;94919.00;;;16.24;39.74
70127;BME280;57491;42.694;23.314;2023-03-21T07:18:20;94918.66;;;16.21;39.74
70127;BME280;57491;42.694;23.314;2023-03-21T07:20:48;94920.06;;;16.17;39.89
70127;BME280;57491;42.694;23.314;2023-03-21T07:23:16;94924.53;;;16.16;39.78
70127;BME280;57491;42.694;23.314;2023-03-21T07:25:43;94922.28;;;16.20;39.31
70127;BME280;57491;42.694;23.314;2023-03-21T07:28:11;94924.53;;;16.16;39.34
70127;BME280;57491;42.694;23.314;2023-03-21T07:30:38;94917.09;;;16.13;39.40
70127;BME280;57491;42.694;23.314;2023-03-21T07:33:06;94920.03;;;16.23;38.82
70127;BME280;57491;42.694;23.314;2023-03-21T07:35:34;94913.97;;;16.23;38.73
70127;BME280;57491;42.694;23.314;2023-03-21T07:38:01;94911.66;;;16.33;38.71
70127;BME280;57491;42.694;23.314;2023-03-21T07:40:28;94916.16;;;16.26;38.99
70127;BME280;57491;42.694;23.314;2023-03-21T07:42:56;94914.84;;;16.17;38.18
70127;BME280;57491;42.694;23.314;2023-03-21T07:45:23;94908.06;;;16.27;39.08
70127;BME280;57491;42.694;23.314;2023-03-21T07:47:52;94919.22;;;16.41;38.52
70127;BME280;57491;42.694;23.314;2023-03-21T07:50:20;94920.56;;;16.68;38.09
70127;BME280;57491;42.694;23.314;2023-03-21T07:52:47;94917.06;;;16.92;38.03
70127;BME280;57491;42.694;23.314;2023-03-21T07:55:15;94913.44;;;17.05;37.79
70127;BME280;57491;42.694;23.314;2023-03-21T07:57:43;94907.28;;;17.11;36.78
70127;BME280;57491;42.694;23.314;2023-03-21T08:00:12;94917.69;;;17.06;36.51
70127;BME280;57491;42.694;23.314;2023-03-21T08:02:48;94921.00;;;17.13;36.67
70127;BME280;57491;42.694;23.314;2023-03-21T08:05:21;94920.41;;;17.11;36.70
70127;BME280;57491;42.694;23.314;2023-03-21T08:07:49;94919.41;;;17.12;36.60
70127;BME280;57491;42.694;23.314;2023-03-21T08:10:17;94920.97;;;17.31;36.61
70127;BME280;57491;42.694;23.314;2023-03-21T08:12:44;94925.69;;;17.41;36.13
70127;BME280;57491;42.694;23.314;2023-03-21T08:15:13;94908.56;;;17.50;36.08
70127;BME280;57491;42.694;23.314;2023-03-21T08:17:41;94919.38;;;17.60;36.65
70127;BME280;57491;42.694;23.314;2023-03-21T08:20:12;94914.13;;;17.72;35.56
70127;BME280;57491;42.694;23.314;2023-03-21T08:22:42;94911.75;;;17.82;34.50
70127;BME280;57491;42.694;23.314;2023-03-21T08:25:10;94912.19;;;17.91;35.08
70127;BME280;57491;42.694;23.314;2023-03-21T08:27:39;94883.84;;;17.69;34.51
70127;BME280;57491;42.694;23.314;2023-03-21T08:30:07;94904.28;;;17.79;34.36
70127;BME280;57491;42.694;23.314;2023-03-21T08:32:34;94904.53;;;17.77;34.58
70127;BME280;57491;42.694;23.314;2023-03-21T08:35:05;94896.06;;;17.64;33.95
70127;BME280;57491;42.694;23.314;2023-03-21T08:37:34;94900.06;;;17.78;34.14
70127;BME280;57491;42.694;23.314;2023-03-21T08:40:04;94897.56;;;17.83;34.15
70127;BME280;57491;42.694;23.314;2023-03-21T08:42:34;94900.88;;;17.90;35.67
70127;BME280;57491;42.694;23.314;2023-03-21T08:45:02;94888.88;;;17.94;34.63
70127;BME280;57491;42.694;23.314;2023-03-21T08:47:29;94907.88;;;17.96;33.89
70127;BME280;57491;42.694;23.314;2023-03-21T08:49:56;94900.38;;;17.70;34.14
70127;BME280;57491;42.694;23.314;2023-03-21T08:52:23;94904.41;;;17.72;34.46
70127;BME280;57491;42.694;23.314;2023-03-21T08:54:51;94902.13;;;17.76;34.26
70127;BME280;57491;42.694;23.314;2023-03-21T08:57:20;94894.91;;;17.71;34.93
70127;BME280;57491;42.694;23.314;2023-03-21T08:59:47;94894.00;;;17.89;35.23
70127;BME280;57491;42.694;23.314;2023-03-21T09:02:15;94897.66;;;18.11;34.67
70127;BME280;57491;42.694;23.314;2023-03-21T09:04:42;94894.91;;;18.29;34.51
70127;BME280;57491;42.694;23.314;2023-03-21T09:07:10;94899.16;;;18.31;33.22
70127;BME280;57491;42.694;23.314;2023-03-21T09:09:40;94891.97;;;18.14;33.83
70127;BME280;57491;42.694;23.314;2023-03-21T09:12:07;94887.72;;;17.90;33.58
70127;BME280;57491;42.694;23.314;2023-03-21T09:14:36;94874.78;;;17.65;34.16
70127;BME280;57491;42.694;23.314;2023-03-21T09:17:03;94877.88;;;17.62;34.67
70127;BME280;57491;42.694;23.314;2023-03-21T09:19:30;94880.84;;;17.66;34.75
70127;BME280;57491;42.694;23.314;2023-03-21T09:21:58;94874.09;;;17.70;35.43
70127;BME280;57491;42.694;23.314;2023-03-21T09:24:25;94848.72;;;17.75;35.16
70127;BME280;57491;42.694;23.314;2023-03-21T09:26:52;94873.56;;;18.14;35.16
70127;BME280;57491;42.694;23.314;2023-03-21T09:29:19;94870.91;;;18.26;33.94
70127;BME280;57491;42.694;23.314;2023-03-21T09:31:47;94846.88;;;18.22;34.84
70127;BME280;57491;42.694;23.314;2023-03-21T09:34:15;94862.16;;;18.49;33.84
70127;BME280;57491;42.694;23.314;2023-03-21T09:36:42;94853.00;;;18.63;34.13
70127;BME280;57491;42.694;23.314;2023-03-21T09:39:13;94859.16;;;18.68;33.34
70127;BME280;57491;42.694;23.314;2023-03-21T09:41:44;94860.22;;;18.44;33.36
70127;BME280;57491;42.694;23.314;2023-03-21T09:44:30;94850.41;;;18.16;34.25
70127;BME280;57491;42.694;23.314;2023-03-21T09:47:04;94841.13;;;18.25;34.23
70127;BME280;57491;42.694;23.314;2023-03-21T09:49:39;94818.91;;;18.33;34.92
70127;BME280;57491;42.694;23.314;2023-03-21T09:52:12;94822.09;;;18.58;34.85
70127;BME280;57491;42.694;23.314;2023-03-21T09:54:41;94847.41;;;18.88;32.90
70127;BME280;57491;42.694;23.314;2023-03-21T09:57:19;94842.19;;;19.04;32.50
70127;BME280;57491;42.694;23.314;2023-03-21T09:59:49;94853.06;;;19.25;32.71
70127;BME280;57491;42.694;23.314;2023-03-21T10:02:28;94836.03;;;19.15;31.92
70127;BME280;57491;42.694;23.314;2023-03-21T10:05:03;94836.38;;;19.19;32.34
70127;BME280;57491;42.694;23.314;2023-03-21T10:07:39;94814.66;;;19.29;32.08
70127;BME280;57491;42.694;23.314;2023-03-21T10:10:14;94825.63;;;19.71;31.73
70127;BME280;57491;42.694;23.314;2023-03-21T10:12:44;94828.28;;;20.09;31.51
70127;BME280;57491;42.694;23.314;2023-03-21T10:15:17;94828.53;;;20.46;30.87
70127;BME280;57491;42.694;23.314;2023-03-21T10:17:52;94818.06;;;20.78;30.00
70127;BME280;57491;42.694;23.314;2023-03-21T10:20:23;94808.56;;;21.30;29.63
70127;BME280;57491;42.694;23.314;2023-03-21T10:22:53;94815.28;;;22.17;28.73
70127;BME280;57491;42.694;23.314;2023-03-21T10:25:25;94809.81;;;22.96;27.60
70127;BME280;57491;42.694;23.314;2023-03-21T10:27:53;94811.44;;;23.78;25.90
70127;BME280;57491;42.694;23.314;2023-03-21T10:30:29;94815.53;;;24.60;25.00
70127;BME280;57491;42.694;23.314;2023-03-21T10:33:02;94809.53;;;24.98;24.07
70127;BME280;57491;42.694;23.314;2023-03-21T10:35:31;94803.56;;;25.16;23.19
70127;BME280;57491;42.694;23.314;2023-03-21T10:38:01;94807.69;;;24.99;23.79
70127;BME280;57491;42.694;23.314;2023-03-21T10:40:28;94806.53;;;25.10;23.49
70127;BME280;57491;42.694;23.314;2023-03-21T10:42:56;94810.44;;;25.22;23.25
70127;BME280;57491;42.694;23.314;2023-03-21T10:45:40;94814.94;;;25.27;23.09
70127;BME280;57491;42.694;23.314;2023-03-21T10:48:09;94807.41;;;25.39;22.74
70127;BME280;57491;42.694;23.314;2023-03-21T10:50:36;94805.19;;;25.56;22.68
70127;BME280;57491;42.694;23.314;2023-03-21T10:53:13;94815.03;;;25.51;22.35
70127;BME280;57491;42.694;23.314;2023-03-21T10:55:42;94812.00;;;25.28;22.42
70127;BME280;57491;42.694;23.314;2023-03-21T10:58:14;94809.00;;;24.96;22.60
70127;BME280;57491;42.694;23.314;2023-03-21T11:00:44;94802.91;;;24.91;22.15
70127;BME280;57491;42.694;23.314;2023-03-21T11:03:20;94786.59;;;24.53;22.48
70127;BME280;57491;42.694;23.314;2023-03-21T11:05:52;94788.47;;;24.53;23.20
70127;BME280;57491;42.694;23.314;2023-03-21T11:08:22;94789.34;;;24.28;22.84
70127;BME280;57491;42.694;23.314;2023-03-21T11:10:52;94777.88;;;24.37;23.18
70127;BME280;57491;42.694;23.314;2023-03-21T11:13:24;94778.28;;;24.65;22.81
70127;BME280;57491;42.694;23.314;2023-03-21T11:15:53;94771.50;;;24.98;22.30
70127;BME280;57491;42.694;23.314;2023-03-21T11:18:24;94768.53;;;24.99;22.21
70127;BME280;57491;42.694;23.314;2023-03-21T11:20:53;94773.34;;;25.36;21.99
70127;BME280;57491;42.694;23.314;2023-03-21T11:23:21;94767.91;;;25.56;21.27
70127;BME280;57491;42.694;23.314;2023-03-21T11:25:51;94771.91;;;25.49;21.25
70127;BME280;57491;42.694;23.314;2023-03-21T11:28:21;94770.84;;;25.50;21.00
70127;BME280;57491;42.694;23.314;2023-03-21T11:30:51;94766.53;;;25.59;20.90
70127;BME280;57491;42.694;23.314;2023-03-21T11:33:22;94755.88;;;25.59;21.34
70127;BME280;57491;42.694;23.314;2023-03-21T11:36:02;94753.19;;;25.64;21.02
70127;BME280;57491;42.694;23.314;2023-03-21T11:38:31;94747.56;;;25.31;21.22
70127;BME280;57491;42.694;23.314;2023-03-21T11:41:00;94738.63;;;25.17;22.09
70127;BME280;57491;42.694;23.314;2023-03-21T11:43:29;94744.50;;;25.14;21.77
70127;BME280;57491;42.694;23.314;2023-03-21T11:45:58;94738.59;;;24.78;21.87
70127;BME280;57491;42.694;23.314;2023-03-21T11:48:28;94737.19;;;24.47;22.54
70127;BME280;57491;42.694;23.314;2023-03-21T11:51:00;94727.38;;;24.42;22.75
70127;BME280;57491;42.694;23.314;2023-03-21T11:53:36;94723.22;;;24.21;22.97
70127;BME280;57491;42.694;23.314;2023-03-21T11:56:25;94730.66;;;24.19;23.27
70127;BME280;57491;42.694;23.314;2023-03-21T11:59:10;94720.81;;;24.15;22.87
70127;BME280;57491;42.694;23.314;2023-03-21T12:01:51;94723.44;;;24.30;22.55
70127;BME280;57491;42.694;23.314;2023-03-21T12:04:37;94725.91;;;24.16;22.74
70127;BME280;57491;42.694;23.314;2023-03-21T12:07:14;94721.41;;;23.91;22.79
70127;BME280;57491;42.694;23.314;2023-03-21T12:09:52;94714.31;;;23.77;23.28
70127;BME280;57491;42.694;23.314;2023-03-21T12:12:30;94710.34;;;23.69;23.00
70127;BME280;57491;42.694;23.314;2023-03-21T12:15:03;94710.91;;;23.51;22.67
70127;BME280;57491;42.694;23.314;2023-03-21T12:17:41;94705.34;;;23.47;22.87
70127;BME280;57491;42.694;23.314;2023-03-21T12:20:27;94702.16;;;23.25;22.99
70127;BME280;57491;42.694;23.314;2023-03-21T12:23:11;94708.28;;;23.05;23.09
70127;BME280;57491;42.694;23.314;2023-03-21T12:25:44;94710.38;;;22.93;23.19
70127;BME280;57491;42.694;23.314;2023-03-21T12:28:22;94703.47;;;22.82;23.57
70127;BME280;57491;42.694;23.314;2023-03-21T12:31:00;94700.50;;;22.68;23.98
70127;BME280;57491;42.694;23.314;2023-03-21T12:33:48;94689.34;;;22.61;24.31
70127;BME280;57491;42.694;23.314;2023-03-21T12:36:32;94684.56;;;22.48;24.21
70127;BME280;57491;42.694;23.314;2023-03-21T12:39:11;94686.72;;;22.51;24.31
70127;BME280;57491;42.694;23.314;2023-03-21T12:41:44;94680.84;;;22.44;24.56
70127;BME280;57491;42.694;23.314;2023-03-21T12:44:14;94676.59;;;22.38;24.54
70127;BME280;57491;42.694;23.314;2023-03-21T12:46:44;94677.91;;;22.36;24.50
70127;BME280;57491;42.694;23.314;2023-03-21T12:49:17;94688.22;;;22.22;24.75
70127;BME280;57491;42.694;23.314;2023-03-21T12:51:51;94672.66;;;21.78;25.69
70127;BME280;57491;42.694;23.314;2023-03-21T12:54:25;94675.59;;;21.03;25.80
70127;BME280;57491;42.694;23.314;2023-03-21T12:56:58;94668.22;;;20.73;26.07
70127;BME280;57491;42.694;23.314;2023-03-21T12:59:33;94670.72;;;20.31;26.92
70127;BME280;57491;42.694;23.314;2023-03-21T13:02:13;94658.47;;;19.98;27.73
70127;BME280;57491;42.694;23.314;2023-03-21T13:04:48;94664.03;;;20.24;27.85
70127;BME280;57491;42.694;23.314;2023-03-21T13:07:20;94648.19;;;20.24;27.44
70127;BME280;57491;42.694;23.314;2023-03-21T13:09:50;94624.66;;;19.95;27.88
70127;BME280;57491;42.694;23.314;2023-03-21T13:12:31;94635.03;;;20.02;27.70